Time;durP1;ratioP1;P1;durP2;ratioP2;P2;SDS_P1;SDS_P2;PMS_P1;PMS_P2;Temp;Humidity;BMP_temperature;BMP_pressure;BME280_temperature;BME280_humidity;BME280_pressure;Samples;Min_cycle;Max_cycle;Signal;HPM_P1;HPM_P2
2022/12/23 00:01:06;;;;;;;11.40;8.93;;;11.10;99.90;;;;;;5042116;28;20055;-41
2022/12/23 00:03:33;;;;;;;13.25;9.50;;;11.10;99.90;;;;;;5042633;28;20139;-41
2022/12/23 00:05:59;;;;;;;11.20;9.07;;;11.10;99.90;;;;;;5041544;28;20044;-40
2022/12/23 00:08:25;;;;;;;10.75;8.73;;;11.10;99.90;;;;;;5042404;28;20031;-41
2022/12/23 00:10:53;;;;;;;10.93;9.18;;;11.10;99.90;;;;;;5042927;28;20139;-41
2022/12/23 00:16:08;;;;;;;11.65;9.57;;;11.10;99.90;;;;;;5041450;28;20095;-39
2022/12/23 00:18:34;;;;;;;11.70;9.23;;;11.10;99.90;;;;;;5042515;28;20025;-40
2022/12/23 00:21:06;;;;;;;14.43;9.35;;;11.10;99.90;;;;;;5041212;28;20032;-41
2022/12/23 00:23:33;;;;;;;13.40;9.60;;;11.10;99.90;;;;;;5039584;28;20036;-36
2022/12/23 00:26:00;;;;;;;14.13;10.40;;;11.10;99.90;;;;;;5041351;28;20118;-40
2022/12/23 00:28:26;;;;;;;16.83;10.98;;;11.10;99.90;;;;;;5041601;28;20036;-41
2022/12/23 00:30:53;;;;;;;15.00;11.23;;;11.10;99.90;;;;;;5042715;28;20178;-40
2022/12/23 00:33:23;;;;;;;13.02;10.43;;;11.10;99.90;;;;;;5040644;28;20419;-39
2022/12/23 00:35:50;;;;;;;14.88;11.10;;;11.10;99.90;;;;;;5042674;28;20061;-41
2022/12/23 00:38:16;;;;;;;16.42;10.90;;;11.10;99.90;;;;;;5040833;28;20452;-40
2022/12/23 00:43:27;;;;;;;21.40;12.27;;;11.10;99.90;;;;;;5042287;28;20039;-39
2022/12/23 00:45:52;;;;;;;17.35;11.40;;;11.10;99.90;;;;;;5042483;28;20044;-40
2022/12/23 00:51:02;;;;;;;16.90;11.82;;;11.10;99.90;;;;;;5041251;28;20511;-39
2022/12/23 00:53:29;;;;;;;16.20;11.63;;;11.10;99.90;;;;;;5042091;28;20021;-39
2022/12/23 00:55:54;;;;;;;17.67;11.90;;;11.10;99.90;;;;;;5040754;28;20040;-38
2022/12/23 00:58:21;;;;;;;19.77;12.30;;;11.10;99.90;;;;;;5040743;28;20059;-40
2022/12/23 01:06:16;;;;;;;17.25;12.13;;;11.10;99.90;;;;;;5041085;28;20083;-40
2022/12/23 01:08:42;;;;;;;21.52;12.27;;;11.10;99.90;;;;;;5040827;28;20101;-40
2022/12/23 01:11:10;;;;;;;18.90;12.10;;;11.10;99.90;;;;;;5041248;28;20754;-36
2022/12/23 01:13:37;;;;;;;17.85;11.27;;;11.10;99.90;;;;;;5041280;28;20082;-39
2022/12/23 01:16:06;;;;;;;13.32;10.00;;;11.10;99.90;;;;;;5040673;28;20040;-39
2022/12/23 01:18:33;;;;;;;13.82;10.60;;;11.10;99.90;;;;;;5041447;28;20037;-39
2022/12/23 01:21:04;;;;;;;12.48;10.18;;;11.10;99.90;;;;;;5041622;28;20456;-39
2022/12/23 01:23:29;;;;;;;14.50;10.27;;;11.10;99.90;;;;;;5040681;28;20071;-38
2022/12/23 01:26:00;;;;;;;13.02;10.13;;;11.10;99.90;;;;;;5040879;28;20380;-40
2022/12/23 01:28:28;;;;;;;15.63;10.15;;;11.10;99.90;;;;;;5040880;28;20029;-40
2022/12/23 01:30:53;;;;;;;11.38;9.75;;;11.10;99.90;;;;;;5040713;28;20028;-39
2022/12/23 01:33:19;;;;;;;12.75;9.07;;;11.10;99.90;;;;;;5040190;28;20444;-40
2022/12/23 01:35:45;;;;;;;11.90;9.75;;;11.10;99.90;;;;;;5040723;28;20032;-44
2022/12/23 01:38:10;;;;;;;15.23;9.93;;;11.10;99.90;;;;;;5039942;28;20028;-40
2022/12/23 01:40:38;;;;;;;14.20;9.80;;;11.10;99.90;;;;;;5040413;28;20033;-40
2022/12/23 01:43:04;;;;;;;16.88;10.88;;;11.10;99.90;;;;;;5040364;28;20044;-36
2022/12/23 01:45:31;;;;;;;15.38;10.23;;;11.10;99.90;;;;;;5040008;28;20040;-36
2022/12/23 01:47:59;;;;;;;13.82;9.38;;;11.10;99.90;;;;;;5040461;28;20020;-41
2022/12/23 01:50:36;;;;;;;14.02;9.60;;;11.10;99.90;;;;;;5040098;28;20037;-40
2022/12/23 01:53:24;;;;;;;12.27;9.23;;;11.10;99.90;;;;;;5040952;28;20033;-39
2022/12/23 01:56:03;;;;;;;10.48;8.18;;;11.00;99.90;;;;;;5040627;28;20052;-39
2022/12/23 01:58:54;;;;;;;13.82;9.27;;;11.10;99.90;;;;;;5020191;28;20061;-41
2022/12/23 02:04:08;;;;;;;11.07;9.30;;;11.00;99.90;;;;;;5040921;28;20561;-39
2022/12/23 02:09:25;;;;;;;13.55;9.65;;;11.00;99.90;;;;;;5040972;28;20063;-39
2022/12/23 02:12:09;;;;;;;13.23;9.75;;;11.00;99.90;;;;;;5039839;28;20056;-39
2022/12/23 02:18:20;;;;;;;12.55;9.30;;;11.00;99.90;;;;;;5030546;28;20075;-39
2022/12/23 02:21:07;;;;;;;13.25;8.82;;;11.00;99.90;;;;;;5039931;28;20392;-39
2022/12/23 02:23:48;;;;;;;11.18;8.80;;;11.00;99.90;;;;;;5041524;28;20040;-39
2022/12/23 02:26:46;;;;;;;12.30;9.45;;;11.00;99.90;;;;;;5039206;28;20798;-37
2022/12/23 02:29:26;;;;;;;14.70;9.50;;;11.00;99.90;;;;;;5040426;28;20049;-40
2022/12/23 02:32:13;;;;;;;12.82;9.18;;;11.00;99.90;;;;;;5040978;28;20025;-40
2022/12/23 02:35:02;;;;;;;12.65;9.18;;;11.00;99.90;;;;;;5020469;28;20068;-39
2022/12/23 02:37:27;;;;;;;13.63;9.88;;;11.00;99.90;;;;;;5037857;28;20424;-39
2022/12/23 02:40:52;;;;;;;13.77;9.98;;;11.00;99.90;;;;;;5039815;28;20031;-40
2022/12/23 02:43:22;;;;;;;13.00;9.43;;;11.00;99.90;;;;;;5016791;28;20042;-40
2022/12/23 02:45:57;;;;;;;9.95;8.10;;;11.00;99.90;;;;;;5039686;28;20033;-40
2022/12/23 02:48:38;;;;;;;11.07;8.90;;;11.00;99.90;;;;;;5036210;28;20033;-40
2022/12/23 02:51:06;;;;;;;11.52;8.40;;;11.00;99.90;;;;;;5039198;28;20041;-40
2022/12/23 02:53:43;;;;;;;12.30;9.85;;;11.10;99.90;;;;;;5040384;28;20029;-40
2022/12/23 02:56:10;;;;;;;13.15;9.45;;;11.00;99.90;;;;;;5040116;28;20037;-40
2022/12/23 02:58:52;;;;;;;14.55;9.85;;;11.10;99.90;;;;;;5040208;28;20021;-39
2022/12/23 03:01:19;;;;;;;10.50;8.88;;;11.10;99.90;;;;;;5039600;28;20024;-39
2022/12/23 03:03:45;;;;;;;11.85;9.30;;;11.10;99.90;;;;;;5039779;28;20733;-39
2022/12/23 03:06:23;;;;;;;12.32;9.00;;;11.00;99.90;;;;;;5040064;28;20040;-39
2022/12/23 03:08:53;;;;;;;11.43;9.15;;;11.10;99.90;;;;;;5039981;28;20059;-39
2022/12/23 03:11:19;;;;;;;13.55;10.57;;;11.10;99.90;;;;;;5040378;28;20036;-39
2022/12/23 03:14:12;;;;;;;13.02;9.93;;;11.00;99.90;;;;;;5043794;28;20025;-39
2022/12/23 03:16:40;;;;;;;;;;;11.10;99.90;;;;;;5043863;28;20024;-39
2022/12/23 03:19:31;;;;;;;18.20;10.43;;;11.10;99.90;;;;;;5043052;28;20463;-39
2022/12/23 03:22:37;;;;;;;12.05;9.65;;;11.00;99.90;;;;;;5042868;28;20111;-37
2022/12/23 03:25:32;;;;;;;11.40;8.65;;;11.00;99.90;;;;;;5031423;28;20102;-42
2022/12/23 03:28:14;;;;;;;12.30;8.80;;;11.00;99.90;;;;;;5043533;28;20047;-41
2022/12/23 03:30:45;;;;;;;11.20;8.80;;;11.00;99.90;;;;;;5042653;28;20033;-41
2022/12/23 03:33:25;;;;;;;12.48;8.35;;;11.00;99.90;;;;;;5042394;28;20166;-40
2022/12/23 03:36:02;;;;;;;12.30;8.45;;;11.10;99.90;;;;;;5043129;28;20039;-39
2022/12/23 03:38:31;;;;;;;11.85;8.43;;;11.00;99.90;;;;;;5043431;28;20069;-40
2022/12/23 03:41:04;;;;;;;12.30;8.60;;;11.00;99.90;;;;;;5042538;28;20032;-41
2022/12/23 03:43:35;;;;;;;11.05;7.45;;;11.00;99.90;;;;;;5042721;28;20106;-41
2022/12/23 03:46:13;;;;;;;9.93;7.75;;;11.00;99.90;;;;;;5043275;28;20041;-41
2022/12/23 03:48:47;;;;;;;9.63;6.75;;;11.00;99.90;;;;;;5043372;28;20041;-40
2022/12/23 03:51:18;;;;;;;10.30;6.82;;;10.90;99.90;;;;;;5041873;28;20033;-38
2022/12/23 03:53:51;;;;;;;9.07;6.53;;;10.90;99.90;;;;;;5042668;28;20813;-36
2022/12/23 03:56:23;;;;;;;10.48;6.63;;;10.90;99.90;;;;;;5042214;28;20867;-39
2022/12/23 03:58:56;;;;;;;8.35;6.15;;;10.90;99.90;;;;;;5042419;28;20016;-39
2022/12/23 04:01:51;;;;;;;6.93;6.22;;;10.90;99.90;;;;;;5042824;28;20082;-39
2022/12/23 04:04:42;;;;;;;7.85;6.00;;;10.90;99.90;;;;;;5041484;28;20036;-38
2022/12/23 04:07:39;;;;;;;8.07;6.03;;;11.00;99.90;;;;;;5043012;28;20128;-39
2022/12/23 04:10:07;;;;;;;6.72;5.13;;;11.00;99.90;;;;;;5037476;28;20087;-38
2022/12/23 04:12:32;;;;;;;6.82;5.90;;;10.90;99.90;;;;;;5041949;28;20043;-37
2022/12/23 04:14:58;;;;;;;7.75;5.53;;;11.00;99.90;;;;;;5042095;28;20099;-40
2022/12/23 04:17:23;;;;;;;7.57;6.18;;;11.00;99.90;;;;;;5042269;28;20400;-38
2022/12/23 04:19:51;;;;;;;7.05;5.35;;;11.00;99.90;;;;;;5041943;28;20121;-39
2022/12/23 04:22:16;;;;;;;5.30;4.70;;;11.00;99.90;;;;;;5041640;28;20021;-37
2022/12/23 04:24:42;;;;;;;5.60;4.97;;;11.00;99.90;;;;;;5042530;28;20035;-39
2022/12/23 04:27:11;;;;;;;5.63;4.40;;;10.90;99.90;;;;;;5041692;28;20048;-39
2022/12/23 04:29:37;;;;;;;6.18;5.47;;;10.90;99.90;;;;;;5041974;28;20746;-39
2022/12/23 04:32:03;;;;;;;7.15;5.20;;;10.80;99.90;;;;;;5041495;28;20024;-41
2022/12/23 04:34:28;;;;;;;6.03;4.97;;;10.80;99.90;;;;;;5040665;28;20057;-39
2022/12/23 04:36:54;;;;;;;5.88;4.97;;;10.80;99.90;;;;;;5041736;28;20165;-41
2022/12/23 04:39:20;;;;;;;6.82;5.18;;;10.80;99.90;;;;;;5041280;28;20108;-41
2022/12/23 04:41:45;;;;;;;7.18;5.40;;;10.80;99.90;;;;;;5040638;28;20640;-41
2022/12/23 04:44:11;;;;;;;5.95;5.35;;;10.80;99.90;;;;;;5030474;28;20021;-41
2022/12/23 04:46:36;;;;;;;6.13;5.35;;;10.80;99.90;;;;;;5037879;28;20033;-40
2022/12/23 04:49:02;;;;;;;5.85;5.25;;;10.80;99.90;;;;;;5041807;28;20032;-40
2022/12/23 04:51:28;;;;;;;6.50;5.78;;;10.70;99.90;;;;;;5041471;28;20029;-40
2022/12/23 04:53:53;;;;;;;5.88;5.10;;;10.70;99.90;;;;;;5040427;28;20029;-40
2022/12/23 04:56:19;;;;;;;6.88;5.95;;;10.70;99.90;;;;;;5040493;28;20032;-40
2022/12/23 04:58:44;;;;;;;7.03;5.50;;;10.60;99.90;;;;;;5041722;28;20033;-40
2022/12/23 05:01:11;;;;;;;7.45;5.90;;;10.60;99.90;;;;;;5040527;28;20033;-40
2022/12/23 05:03:38;;;;;;;6.13;5.53;;;10.60;99.90;;;;;;5041459;28;20029;-40
2022/12/23 05:06:04;;;;;;;6.13;5.50;;;10.60;99.90;;;;;;5040642;28;20035;-40
2022/12/23 05:08:30;;;;;;;6.47;5.75;;;10.60;99.90;;;;;;5041477;28;20132;-39
2022/12/23 05:10:56;;;;;;;6.97;5.70;;;10.60;99.90;;;;;;5041201;28;20056;-39
2022/12/23 05:13:22;;;;;;;7.13;6.30;;;10.60;99.90;;;;;;5041153;28;20104;-39
2022/12/23 05:15:52;;;;;;;6.32;5.57;;;10.60;99.90;;;;;;5041032;28;20037;-39
2022/12/23 05:18:18;;;;;;;7.30;5.68;;;10.60;99.90;;;;;;5040393;28;20063;-37
2022/12/23 05:20:44;;;;;;;6.95;5.65;;;10.70;99.90;;;;;;5042138;28;20876;-39
2022/12/23 05:23:10;;;;;;;6.38;5.50;;;10.60;99.90;;;;;;5040353;28;20033;-39
2022/12/23 05:25:37;;;;;;;7.35;5.65;;;10.70;99.90;;;;;;5041817;28;20878;-39
2022/12/23 05:28:04;;;;;;;8.18;6.10;;;10.70;99.90;;;;;;5041488;28;20185;-40
2022/12/23 05:30:29;;;;;;;6.13;5.53;;;10.70;99.90;;;;;;5040969;28;20025;-40
2022/12/23 05:32:55;;;;;;;6.60;5.60;;;10.70;99.90;;;;;;5040622;28;20532;-40
2022/12/23 05:35:23;;;;;;;7.53;6.30;;;10.70;99.90;;;;;;5040054;28;20071;-39
2022/12/23 05:37:48;;;;;;;8.88;6.70;;;10.70;99.90;;;;;;5040146;28;20029;-41
2022/12/23 05:40:14;;;;;;;7.78;6.47;;;10.70;99.90;;;;;;5040670;28;20772;-39
2022/12/23 05:42:40;;;;;;;9.77;7.20;;;10.70;99.90;;;;;;5039640;28;20395;-38
2022/12/23 05:45:06;;;;;;;7.35;6.15;;;10.70;99.90;;;;;;5040343;28;20109;-39
2022/12/23 05:47:31;;;;;;;8.00;5.97;;;10.70;99.90;;;;;;5040973;28;20795;-39
2022/12/23 05:49:57;;;;;;;8.07;6.00;;;10.70;99.90;;;;;;5040034;28;20028;-42
2022/12/23 05:52:22;;;;;;;8.57;7.03;;;10.70;99.90;;;;;;5040149;28;20773;-40
2022/12/23 05:54:48;;;;;;;8.45;6.53;;;10.70;99.90;;;;;;5040564;28;20773;-40
2022/12/23 05:57:13;;;;;;;9.60;7.25;;;10.80;99.90;;;;;;5039868;28;20037;-40
2022/12/23 05:59:39;;;;;;;9.40;7.43;;;10.80;99.90;;;;;;5040912;28;20753;-40
2022/12/23 06:02:04;;;;;;;8.60;7.15;;;10.80;99.90;;;;;;5040928;28;20502;-40
2022/12/23 06:04:30;;;;;;;8.10;6.72;;;10.80;99.90;;;;;;5040162;28;20063;-39
2022/12/23 06:06:56;;;;;;;7.97;6.03;;;10.80;99.90;;;;;;5040342;28;20342;-40
2022/12/23 06:09:21;;;;;;;9.07;7.13;;;10.70;99.90;;;;;;5040222;28;20623;-40
2022/12/23 06:11:47;;;;;;;7.97;6.72;;;10.70;99.90;;;;;;5040412;28;20032;-38
2022/12/23 06:14:12;;;;;;;9.13;7.80;;;10.70;99.90;;;;;;5039739;28;20372;-40
2022/12/23 06:16:38;;;;;;;10.43;7.82;;;10.60;99.90;;;;;;5040710;28;20035;-40
2022/12/23 06:19:03;;;;;;;8.73;7.22;;;10.60;99.90;;;;;;5039175;28;20025;-40
2022/12/23 06:21:29;;;;;;;9.70;7.78;;;10.60;99.90;;;;;;5040963;28;20033;-37
2022/12/23 06:23:54;;;;;;;9.93;7.85;;;10.60;99.90;;;;;;5040570;28;20025;-40
2022/12/23 06:26:20;;;;;;;8.68;7.15;;;10.50;99.90;;;;;;5039205;28;20134;-40
2022/12/23 06:28:45;;;;;;;9.45;7.85;;;10.60;99.90;;;;;;5040847;28;20074;-37
2022/12/23 06:31:11;;;;;;;8.73;7.00;;;10.50;99.90;;;;;;5039852;28;20139;-40
2022/12/23 06:33:36;;;;;;;9.38;6.90;;;10.60;99.90;;;;;;5039554;28;20136;-40
2022/12/23 06:36:02;;;;;;;9.18;7.00;;;10.60;99.90;;;;;;5039664;28;20077;-44
2022/12/23 06:38:28;;;;;;;7.75;6.80;;;10.60;99.90;;;;;;5040552;28;20081;-40
2022/12/23 06:40:53;;;;;;;9.27;7.03;;;10.60;99.90;;;;;;5039654;28;20025;-38
2022/12/23 06:43:19;;;;;;;9.55;7.15;;;10.50;99.90;;;;;;5039696;28;20510;-41
2022/12/23 06:45:48;;;;;;;11.25;7.50;;;10.50;99.90;;;;;;5040958;28;20036;-40
2022/12/23 06:48:14;;;;;;;9.93;7.30;;;10.50;99.90;;;;;;5043546;28;20029;-39
2022/12/23 06:50:40;;;;;;;7.50;6.43;;;10.50;99.90;;;;;;5043901;28;20108;-39
2022/12/23 06:53:06;;;;;;;7.95;6.75;;;10.40;99.90;;;;;;5043312;28;20411;-39
2022/12/23 06:55:32;;;;;;;9.00;7.13;;;10.50;99.90;;;;;;5043825;28;20056;-40
2022/12/23 06:57:57;;;;;;;8.70;7.38;;;10.40;99.90;;;;;;5043549;28;20041;-39
2022/12/23 07:00:23;;;;;;;9.15;6.95;;;10.40;99.90;;;;;;5043051;28;20041;-37
2022/12/23 07:02:48;;;;;;;9.30;7.63;;;10.40;99.90;;;;;;5043714;28;20052;-39
2022/12/23 07:05:14;;;;;;;9.55;7.60;;;10.40;99.90;;;;;;5048338;28;20021;-40
2022/12/23 07:07:40;;;;;;;9.48;7.30;;;10.40;99.90;;;;;;5041590;28;20143;-40
2022/12/23 07:10:06;;;;;;;11.18;8.05;;;10.50;99.90;;;;;;5041601;28;20033;-40
2022/12/23 07:12:32;;;;;;;8.55;7.35;;;10.50;99.90;;;;;;5043066;28;20086;-40
2022/12/23 07:14:58;;;;;;;10.63;7.80;;;10.50;99.90;;;;;;5042756;28;20024;-40
2022/12/23 07:17:24;;;;;;;9.38;7.20;;;10.40;99.90;;;;;;5043131;28;20040;-40
2022/12/23 07:19:49;;;;;;;9.15;7.07;;;10.40;99.90;;;;;;5042963;28;20477;-39
2022/12/23 07:22:15;;;;;;;8.68;6.90;;;10.40;99.90;;;;;;5041711;28;20643;-39
2022/12/23 07:24:41;;;;;;;9.23;7.22;;;10.40;99.90;;;;;;5043398;28;20032;-38
2022/12/23 07:27:06;;;;;;;8.27;6.90;;;10.40;99.90;;;;;;5041971;28;20044;-40
2022/12/23 07:29:32;;;;;;;9.25;7.05;;;10.40;99.90;;;;;;5041842;28;20025;-39
2022/12/23 07:31:57;;;;;;;8.82;7.13;;;10.40;99.90;;;;;;5042364;28;20441;-38
2022/12/23 07:34:23;;;;;;;8.93;7.45;;;10.40;99.90;;;;;;5041704;28;20049;-39
2022/12/23 07:36:48;;;;;;;9.02;7.40;;;10.40;99.90;;;;;;5040994;28;20025;-39
2022/12/23 07:39:14;;;;;;;8.88;7.53;;;10.40;99.90;;;;;;5041921;28;20436;-40
2022/12/23 07:41:40;;;;;;;11.48;8.35;;;10.40;99.90;;;;;;5042837;28;20064;-39
2022/12/23 07:44:06;;;;;;;10.48;8.07;;;10.40;99.90;;;;;;5040786;28;20025;-38
2022/12/23 07:46:32;;;;;;;10.40;7.95;;;10.40;99.90;;;;;;5043387;28;20063;-40
2022/12/23 07:48:57;;;;;;;12.32;8.90;;;10.50;99.90;;;;;;5042728;28;20476;-39
2022/12/23 07:51:23;;;;;;;11.43;8.45;;;10.50;99.90;;;;;;5041243;28;20408;-39
2022/12/23 07:53:49;;;;;;;11.55;8.65;;;10.50;99.90;;;;;;5042619;28;20396;-39
2022/12/23 07:56:15;;;;;;;12.65;8.82;;;10.50;99.90;;;;;;5041918;28;20037;-39
2022/12/23 07:58:40;;;;;;;11.90;8.52;;;10.50;99.90;;;;;;5041759;28;20043;-39
2022/12/23 08:01:06;;;;;;;11.60;8.52;;;10.50;99.90;;;;;;5042261;28;20021;-39
2022/12/23 08:03:33;;;;;;;12.27;9.00;;;10.50;99.90;;;;;;5042645;28;20040;-40
2022/12/23 08:06:05;;;;;;;11.93;8.93;;;10.50;99.90;;;;;;5042882;28;20039;-38
2022/12/23 08:08:31;;;;;;;15.65;9.70;;;10.60;99.90;;;;;;5043317;28;20075;-40
2022/12/23 08:11:02;;;;;;;12.27;9.45;;;10.50;99.90;;;;;;5041988;28;20119;-39
2022/12/23 08:13:27;;;;;;;12.10;8.60;;;10.60;99.90;;;;;;5042224;28;20035;-40
2022/12/23 08:15:58;;;;;;;10.88;8.77;;;10.60;99.90;;;;;;5042345;28;20029;-39
2022/12/23 08:18:24;;;;;;;10.93;8.45;;;10.60;99.90;;;;;;5041695;28;20029;-41
2022/12/23 08:21:01;;;;;;;10.85;8.70;;;10.50;99.90;;;;;;5042313;28;20036;-39
2022/12/23 08:23:27;;;;;;;12.68;8.88;;;10.50;99.90;;;;;;5042050;28;20049;-38
2022/12/23 08:26:12;;;;;;;13.98;9.85;;;10.50;99.90;;;;;;5041913;28;20114;-40
2022/12/23 08:28:39;;;;;;;13.73;9.20;;;10.50;99.90;;;;;;5042427;28;20036;-39
2022/12/23 08:31:25;;;;;;;12.52;9.02;;;10.50;99.90;;;;;;5041661;28;20029;-41
2022/12/23 08:33:54;;;;;;;11.25;8.75;;;10.50;99.90;;;;;;5041497;28;20053;-39
2022/12/23 08:36:23;;;;;;;11.05;8.02;;;10.50;99.90;;;;;;5041859;28;20053;-40
2022/12/23 08:38:53;;;;;;;10.32;8.48;;;10.50;99.90;;;;;;5041516;28;20025;-38
2022/12/23 08:41:28;;;;;;;13.70;8.75;;;10.60;99.90;;;;;;5041797;28;20107;-38
2022/12/23 08:43:55;;;;;;;10.93;8.38;;;10.60;99.90;;;;;;5041935;28;20032;-40
2022/12/23 08:46:21;;;;;;;12.43;8.20;;;10.60;99.90;;;;;;5040654;28;20041;-41
2022/12/23 08:48:47;;;;;;;13.88;8.82;;;10.60;99.90;;;;;;5041809;28;20021;-39
2022/12/23 08:51:15;;;;;;;11.52;8.55;;;10.70;99.90;;;;;;5041549;28;20040;-39
2022/12/23 08:53:41;;;;;;;12.35;8.55;;;10.70;99.90;;;;;;5040758;28;20064;-39
2022/12/23 08:56:20;;;;;;;12.43;8.60;;;10.70;99.90;;;;;;5041379;28;20369;-37
2022/12/23 08:58:49;;;;;;;12.20;8.45;;;10.70;99.90;;;;;;5040996;28;20045;-39
2022/12/23 09:01:16;;;;;;;11.43;8.27;;;10.70;99.90;;;;;;5040550;28;20106;-40
2022/12/23 09:03:43;;;;;;;10.90;8.05;;;10.70;99.90;;;;;;5042085;28;20052;-41
2022/12/23 09:06:12;;;;;;;11.50;7.93;;;10.70;99.90;;;;;;5040528;28;20063;-39
2022/12/23 09:08:38;;;;;;;12.13;8.32;;;10.80;99.90;;;;;;5040456;28;20029;-37
2022/12/23 09:11:07;;;;;;;10.68;8.02;;;10.80;99.90;;;;;;5040907;28;20033;-40
2022/12/23 09:13:33;;;;;;;9.80;8.00;;;10.80;99.90;;;;;;5040815;28;20731;-40
2022/12/23 09:15:58;;;;;;;12.75;9.25;;;10.70;99.90;;;;;;5039878;28;20025;-41
2022/12/23 09:18:24;;;;;;;11.30;8.63;;;10.80;99.90;;;;;;5041555;28;20840;-40
2022/12/23 09:20:59;;;;;;;12.10;9.02;;;10.70;99.90;;;;;;5040624;28;20071;-40
2022/12/23 09:23:25;;;;;;;11.95;9.13;;;10.80;99.90;;;;;;5042087;28;20029;-40
2022/12/23 09:25:51;;;;;;;11.80;9.02;;;10.80;99.90;;;;;;5040631;28;20048;-41
2022/12/23 09:28:17;;;;;;;11.98;8.38;;;10.70;99.90;;;;;;5039914;28;20029;-37
2022/12/23 09:30:42;;;;;;;10.82;7.85;;;10.70;99.90;;;;;;5041666;28;20025;-40
2022/12/23 09:33:08;;;;;;;10.65;8.30;;;10.70;99.90;;;;;;5040078;28;20056;-39
2022/12/23 09:35:33;;;;;;;10.65;8.10;;;10.70;99.90;;;;;;5040280;28;20040;-39
2022/12/23 09:37:59;;;;;;;13.05;9.48;;;10.70;99.90;;;;;;5040812;28;20028;-39
2022/12/23 09:40:28;;;;;;;13.85;9.18;;;10.70;99.90;;;;;;5040921;28;20789;-38
2022/12/23 09:43:30;;;;;;;13.60;9.13;;;10.80;99.90;;;;;;5040327;28;20119;-38
2022/12/23 09:46:15;;;;;;;11.75;9.10;;;10.80;99.90;;;;;;5039470;28;20032;-37
2022/12/23 09:49:02;;;;;;;15.20;9.13;;;10.80;99.90;;;;;;5040363;28;20044;-39
2022/12/23 09:51:29;;;;;;;14.25;9.38;;;10.80;99.90;;;;;;5041582;28;20036;-39
2022/12/23 09:54:14;;;;;;;14.60;9.82;;;10.80;99.90;;;;;;5041537;28;20056;-39
2022/12/23 09:56:57;;;;;;;15.00;10.73;;;10.80;99.90;;;;;;5039880;28;20106;-39
2022/12/23 10:00:06;;;;;;;16.23;10.45;;;10.80;99.90;;;;;;5039832;28;20106;-39
2022/12/23 10:02:31;;;;;;;15.88;10.40;;;10.80;99.90;;;;;;5040487;28;20028;-39
2022/12/23 10:05:19;;;;;;;17.92;10.60;;;10.80;99.90;;;;;;5040365;28;20029;-39
2022/12/23 10:07:52;;;;;;;17.33;11.35;;;10.80;99.90;;;;;;5040891;28;20037;-39
2022/12/23 10:10:36;;;;;;;;;;;10.80;99.90;;;;;;5040273;28;20507;-40
2022/12/23 10:13:05;;;;;;;17.45;10.20;;;10.80;99.90;;;;;;5038965;28;20389;-38
2022/12/23 10:15:44;;;;;;;17.85;10.77;;;10.80;99.90;;;;;;5040495;28;20060;-39
2022/12/23 10:18:19;;;;;;;18.58;11.05;;;10.80;99.90;;;;;;5038677;28;20017;-40
2022/12/23 10:21:01;;;;;;;19.15;10.98;;;10.80;99.90;;;;;;5041470;28;20033;-37
2022/12/23 10:23:36;;;;;;;17.92;11.50;;;10.80;99.90;;;;;;5044606;28;20049;-39
2022/12/23 10:26:11;;;;;;;21.13;12.35;;;10.80;99.90;;;;;;5043252;28;20079;-39
2022/12/23 10:28:36;;;;;;;19.42;11.65;;;10.80;99.90;;;;;;5044051;28;20025;-39
2022/12/23 10:31:04;;;;;;;19.00;10.95;;;10.80;99.90;;;;;;5043456;28;20087;-39
2022/12/23 10:33:59;;;;;;;19.42;10.77;;;10.80;99.90;;;;;;5044971;28;20144;-39
2022/12/23 10:36:57;;;;;;;18.33;10.93;;;10.80;99.90;;;;;;5041632;28;20885;-39
2022/12/23 10:39:50;;;;;;;19.33;11.00;;;10.80;99.90;;;;;;5042786;28;20372;-37
2022/12/23 10:42:25;;;;;;;17.58;11.27;;;10.90;99.90;;;;;;5029940;28;20429;-39
2022/12/23 10:45:27;;;;;;;17.75;11.07;;;10.90;99.90;;;;;;5044404;28;20037;-39
2022/12/23 10:48:32;;;;;;;18.27;11.07;;;10.90;99.90;;;;;;5044236;28;20048;-39
2022/12/23 10:51:13;;;;;;;18.65;11.50;;;10.90;99.90;;;;;;5043679;28;20037;-40
2022/12/23 10:54:08;;;;;;;16.13;9.88;;;10.90;99.90;;;;;;5043533;28;20033;-40
2022/12/23 10:56:34;;;;;;;15.15;10.57;;;11.00;99.90;;;;;;5023208;28;20043;-40
2022/12/23 10:59:00;;;;;;;18.90;11.38;;;11.00;99.90;;;;;;5036162;28;20580;-38
2022/12/23 11:01:30;;;;;;;17.52;11.70;;;11.00;99.90;;;;;;5043256;28;20025;-39
2022/12/23 11:04:15;;;;;;;19.15;11.70;;;11.00;99.90;;;;;;5044069;28;20013;-38
2022/12/23 11:06:45;;;;;;;18.40;12.57;;;11.00;99.90;;;;;;5043824;28;20041;-40
2022/12/23 11:09:21;;;;;;;19.85;12.88;;;11.00;99.90;;;;;;5043032;28;20017;-38
2022/12/23 11:12:01;;;;;;;19.48;12.82;;;11.00;99.90;;;;;;5043458;28;20044;-36
2022/12/23 11:14:31;;;;;;;19.48;13.15;;;11.10;99.90;;;;;;5036984;28;20021;-38
2022/12/23 11:16:56;;;;;;;21.13;12.75;;;11.10;99.90;;;;;;5036168;28;20053;-38
2022/12/23 11:19:22;;;;;;;17.55;11.77;;;11.10;99.90;;;;;;5043138;28;20840;-41
2022/12/23 11:22:02;;;;;;;20.92;14.07;;;11.10;99.90;;;;;;5043515;28;20024;-40
2022/12/23 11:24:31;;;;;;;19.58;14.07;;;11.10;99.90;;;;;;5043599;28;20163;-42
2022/12/23 11:27:06;;;;;;;20.42;13.65;;;11.10;99.90;;;;;;5043095;28;20064;-40
2022/12/23 11:29:37;;;;;;;21.88;14.52;;;11.10;99.90;;;;;;5043115;28;20115;-39
2022/12/23 11:32:19;;;;;;;22.67;15.68;;;11.00;99.90;;;;;;5042044;28;20358;-40
2022/12/23 11:34:46;;;;;;;26.00;16.63;;;11.10;99.90;;;;;;5042670;28;20060;-39
2022/12/23 11:37:35;;;;;;;23.77;15.98;;;11.00;99.90;;;;;;5041733;28;20072;-40
2022/12/23 11:40:03;;;;;;;23.48;16.23;;;11.10;99.90;;;;;;5041962;28;20021;-37
2022/12/23 11:42:31;;;;;;;24.10;16.33;;;11.00;99.90;;;;;;5042580;28;20013;-39
2022/12/23 11:44:58;;;;;;;30.35;17.63;;;11.10;99.90;;;;;;5042723;28;20028;-40
2022/12/23 11:47:27;;;;;;;28.25;18.05;;;11.10;99.90;;;;;;5042571;28;20045;-39
2022/12/23 11:49:55;;;;;;;29.73;18.50;;;11.10;99.90;;;;;;5042312;28;20028;-39
2022/12/23 11:52:27;;;;;;;30.50;19.02;;;11.10;99.90;;;;;;5041680;28;20109;-39
2022/12/23 11:54:56;;;;;;;31.40;19.33;;;11.10;99.90;;;;;;5042169;28;20017;-39
2022/12/23 11:57:43;;;;;;;30.88;18.02;;;11.10;99.90;;;;;;5041311;28;20348;-39
2022/12/23 12:00:35;;;;;;;29.10;18.25;;;11.10;99.90;;;;;;5040964;28;20013;-40
2022/12/23 12:03:03;;;;;;;32.22;17.90;;;11.10;99.90;;;;;;5041414;28;20199;-40
2022/12/23 12:05:39;;;;;;;30.10;17.75;;;11.10;99.90;;;;;;5042400;28;20036;-38
2022/12/23 12:08:10;;;;;;;26.77;16.98;;;11.00;99.90;;;;;;5042357;28;20051;-39
2022/12/23 12:10:37;;;;;;;24.95;16.48;;;11.00;99.90;;;;;;5041645;28;20032;-40
2022/12/23 12:13:38;;;;;;;23.27;16.67;;;11.00;99.90;;;;;;5042022;28;20033;-39
2022/12/23 12:16:29;;;;;;;21.27;15.07;;;11.00;99.90;;;;;;5039853;28;20025;-40
2022/12/23 12:18:58;;;;;;;22.38;15.23;;;11.00;99.90;;;;;;5042080;28;20859;-39
2022/12/23 12:21:28;;;;;;;24.92;15.05;;;11.10;99.90;;;;;;5041783;28;20032;-39
2022/12/23 12:24:03;;;;;;;24.42;15.20;;;11.10;99.90;;;;;;5041764;28;20463;-39
2022/12/23 12:26:33;;;;;;;22.33;15.38;;;11.00;99.90;;;;;;5042445;28;20054;-40
2022/12/23 12:29:06;;;;;;;21.35;14.30;;;11.00;99.90;;;;;;5041598;28;20029;-37
2022/12/23 12:31:39;;;;;;;19.52;14.45;;;11.10;99.90;;;;;;5041835;28;20027;-40
2022/12/23 12:34:47;;;;;;;20.60;14.52;;;11.00;99.90;;;;;;5042026;28;20053;-40
2022/12/23 12:37:41;;;;;;;20.63;13.85;;;11.10;99.90;;;;;;5041710;28;20040;-39
2022/12/23 12:40:12;;;;;;;20.40;12.75;;;11.10;99.90;;;;;;5021454;28;20507;-39
2022/12/23 12:42:43;;;;;;;19.35;12.95;;;11.10;99.90;;;;;;5039782;28;20036;-41
2022/12/23 12:45:26;;;;;;;17.38;12.68;;;11.10;99.90;;;;;;5040167;28;20053;-41
2022/12/23 12:48:13;;;;;;;20.85;13.98;;;11.10;99.90;;;;;;5041381;28;20504;-39
2022/12/23 12:50:44;;;;;;;23.50;13.57;;;11.10;99.90;;;;;;5041244;28;20029;-39
2022/12/23 12:53:20;;;;;;;34.83;16.08;;;11.10;99.90;;;;;;5040313;28;20028;-39
2022/12/23 12:55:55;;;;;;;23.90;14.80;;;11.00;99.90;;;;;;5041512;28;20025;-36
2022/12/23 12:58:23;;;;;;;20.20;13.70;;;11.10;99.90;;;;;;5040057;28;20033;-41
2022/12/23 13:01:16;;;;;;;21.55;14.18;;;11.10;99.90;;;;;;5040717;28;20056;-38
2022/12/23 13:04:15;;;;;;;20.98;14.48;;;11.10;99.90;;;;;;5041257;28;20053;-39
2022/12/23 13:07:20;;;;;;;21.83;14.55;;;11.10;99.90;;;;;;5041125;28;20055;-39
2022/12/23 13:09:48;;;;;;;21.35;14.48;;;11.00;99.90;;;;;;5034482;28;20036;-40
2022/12/23 13:12:33;;;;;;;23.30;14.13;;;11.00;99.90;;;;;;5040931;28;20036;-40
2022/12/23 13:15:19;;;;;;;25.90;14.93;;;11.00;99.90;;;;;;5032040;28;20583;-37
2022/12/23 13:18:01;;;;;;;26.20;14.77;;;11.00;99.90;;;;;;5041380;28;20067;-39
2022/12/23 13:20:45;;;;;;;20.25;14.40;;;11.00;99.90;;;;;;5040132;28;20091;-37
2022/12/23 13:23:27;;;;;;;17.85;13.30;;;10.90;99.90;;;;;;5040462;28;20539;-40
2022/12/23 13:26:25;;;;;;;19.73;13.88;;;10.90;99.90;;;;;;5040648;28;20051;-41